Time;durP1;ratioP1;P1;durP2;ratioP2;P2;SDS_P1;SDS_P2;PMS_P1;PMS_P2;Temp;Humidity;BMP_temperature;BMP_pressure;BME280_temperature;BME280_humidity;BME280_pressure;Samples;Min_cycle;Max_cycle;Signal;HPM_P1;HPM_P2
2021/09/01 00:00:34;;;;;;;6.68;3.90;;;10.00;99.90;;;;;;5014911;28;20358;-42
2021/09/01 00:03:00;;;;;;;6.65;4.43;;;10.00;99.90;;;;;;5014008;28;20068;-44
2021/09/01 00:05:25;;;;;;;6.95;4.35;;;9.90;99.90;;;;;;5014742;28;20192;-46
2021/09/01 00:07:51;;;;;;;6.88;4.57;;;9.90;99.90;;;;;;5014777;28;20042;-44
2021/09/01 00:10:17;;;;;;;6.57;4.20;;;9.80;99.90;;;;;;5014792;28;20032;-45
2021/09/01 00:12:43;;;;;;;4.68;3.70;;;9.80;99.90;;;;;;5014460;28;20026;-47
2021/09/01 00:15:10;;;;;;;6.75;4.55;;;9.70;99.90;;;;;;5014678;28;20125;-46
2021/09/01 00:17:37;;;;;;;5.75;3.95;;;9.70;99.90;;;;;;5013600;28;20466;-44
2021/09/01 00:20:06;;;;;;;7.30;5.15;;;9.60;99.90;;;;;;5014573;28;20027;-44
2021/09/01 00:22:32;;;;;;;7.55;4.43;;;9.60;99.90;;;;;;5014552;28;20037;-43
2021/09/01 00:24:57;;;;;;;10.82;5.80;;;9.50;99.90;;;;;;5014477;28;20033;-42
2021/09/01 00:27:23;;;;;;;7.32;4.75;;;9.50;99.90;;;;;;5014327;28;20032;-44
2021/09/01 00:29:48;;;;;;;8.13;4.57;;;9.40;99.90;;;;;;5013326;28;20073;-44
2021/09/01 00:32:14;;;;;;;6.47;3.72;;;9.40;99.90;;;;;;5013154;28;20069;-48
2021/09/01 00:34:39;;;;;;;4.80;3.97;;;9.40;99.90;;;;;;5014168;28;20038;-44
2021/09/01 00:37:05;;;;;;;6.20;3.90;;;9.30;99.90;;;;;;5014043;28;20029;-44
2021/09/01 00:39:30;;;;;;;8.10;5.13;;;9.30;99.90;;;;;;5014246;28;20112;-44
2021/09/01 00:42:00;;;;;;;7.38;4.28;;;9.20;99.90;;;;;;5013728;28;20080;-48
2021/09/01 00:44:27;;;;;;;8.65;4.05;;;9.20;99.90;;;;;;5014155;28;20061;-44
2021/09/01 00:46:53;;;;;;;6.65;4.47;;;9.20;99.90;;;;;;5012993;28;20029;-45
2021/09/01 00:49:19;;;;;;;8.85;4.32;;;9.10;99.90;;;;;;5014076;28;20089;-45
2021/09/01 00:51:48;;;;;;;5.00;3.67;;;9.10;99.90;;;;;;5013918;28;20034;-44
2021/09/01 00:54:19;;;;;;;6.70;4.75;;;9.10;99.90;;;;;;5013695;28;20498;-44
2021/09/01 00:56:50;;;;;;;10.20;5.28;;;9.10;99.90;;;;;;5012457;28;20026;-44
2021/09/01 00:59:17;;;;;;;7.93;4.68;;;9.10;99.90;;;;;;5013942;28;20057;-44
2021/09/01 01:01:45;;;;;;;6.80;4.25;;;9.00;99.90;;;;;;5012811;28;20022;-44
2021/09/01 01:04:10;;;;;;;7.13;4.68;;;9.00;99.90;;;;;;5013658;28;20142;-43
2021/09/01 01:06:36;;;;;;;6.13;3.83;;;9.00;99.90;;;;;;5013764;28;20152;-44
2021/09/01 01:09:02;;;;;;;7.53;4.60;;;9.00;99.90;;;;;;5013558;28;20040;-46
2021/09/01 01:11:28;;;;;;;6.90;4.03;;;9.00;99.90;;;;;;5013708;28;20413;-45
2021/09/01 01:13:53;;;;;;;6.38;4.68;;;8.90;99.90;;;;;;5013441;28;20030;-44
2021/09/01 01:16:23;;;;;;;6.20;4.65;;;9.00;99.90;;;;;;5013213;28;20026;-45
2021/09/01 01:18:53;;;;;;;7.03;4.32;;;9.10;99.90;;;;;;5013465;28;20030;-43
2021/09/01 01:21:20;;;;;;;6.97;4.35;;;9.20;99.90;;;;;;5013520;28;20363;-44
2021/09/01 01:23:53;;;;;;;8.82;5.63;;;9.30;99.90;;;;;;5013254;28;20026;-44
2021/09/01 01:26:19;;;;;;;7.68;5.10;;;9.40;99.90;;;;;;5013415;28;20022;-43
2021/09/01 01:28:53;;;;;;;7.50;4.80;;;9.50;99.90;;;;;;5013339;28;20061;-43
2021/09/01 01:31:20;;;;;;;8.20;5.15;;;9.60;99.90;;;;;;5012934;28;20069;-52
2021/09/01 01:33:46;;;;;;;8.73;4.70;;;9.60;99.90;;;;;;5012781;28;20029;-44
2021/09/01 01:36:11;;;;;;;7.68;4.97;;;9.70;99.90;;;;;;5013239;28;20034;-46
2021/09/01 01:38:37;;;;;;;8.25;3.92;;;9.70;99.90;;;;;;5013329;28;20537;-44
2021/09/01 01:41:02;;;;;;;8.05;5.05;;;9.70;99.90;;;;;;5012836;28;20109;-44
2021/09/01 01:43:31;;;;;;;6.72;4.47;;;9.70;99.90;;;;;;5013250;28;20105;-44
2021/09/01 01:45:56;;;;;;;8.15;4.32;;;9.80;99.90;;;;;;5013022;28;20424;-46
2021/09/01 01:48:23;;;;;;;5.18;4.28;;;9.80;99.90;;;;;;5012157;28;20104;-46
2021/09/01 01:50:48;;;;;;;6.72;4.57;;;9.80;99.90;;;;;;5012896;28;20501;-44
2021/09/01 01:53:14;;;;;;;7.43;4.70;;;9.80;99.90;;;;;;5013096;28;20022;-44
2021/09/01 01:55:40;;;;;;;10.13;4.78;;;9.70;99.90;;;;;;5012992;28;20026;-46
2021/09/01 01:58:06;;;;;;;9.05;5.93;;;9.60;99.90;;;;;;5013054;28;20485;-44
2021/09/01 02:00:31;;;;;;;9.52;5.60;;;9.60;99.90;;;;;;5012955;28;20062;-44
2021/09/01 02:02:57;;;;;;;7.85;5.68;;;9.50;99.90;;;;;;5011964;28;20373;-47
2021/09/01 02:05:22;;;;;;;5.72;4.20;;;9.50;99.90;;;;;;5012669;28;20054;-44
2021/09/01 02:07:48;;;;;;;7.35;4.72;;;9.50;99.90;;;;;;5012775;28;20034;-43
2021/09/01 02:10:13;;;;;;;12.13;6.03;;;9.40;99.90;;;;;;5012913;28;20473;-43
2021/09/01 02:12:40;;;;;;;7.93;5.13;;;9.40;99.90;;;;;;5013057;28;20034;-46
2021/09/01 02:15:08;;;;;;;10.80;5.32;;;9.40;99.90;;;;;;5012681;28;20092;-44
2021/09/01 02:17:33;;;;;;;11.25;6.13;;;9.30;99.90;;;;;;5011899;28;20381;-45
2021/09/01 02:19:59;;;;;;;8.55;4.80;;;9.40;99.90;;;;;;5012545;28;20022;-46
2021/09/01 02:22:25;;;;;;;8.55;5.82;;;9.30;99.90;;;;;;5012849;28;20053;-46
2021/09/01 02:24:50;;;;;;;9.60;6.40;;;9.40;99.90;;;;;;5012609;28;20022;-44
2021/09/01 02:27:16;;;;;;;9.35;5.45;;;9.40;99.90;;;;;;5012752;28;20072;-43
2021/09/01 02:29:42;;;;;;;6.47;4.40;;;9.40;99.90;;;;;;5012699;28;20029;-44
2021/09/01 02:32:08;;;;;;;8.57;4.70;;;9.30;99.90;;;;;;5011651;28;20084;-45
2021/09/01 02:34:34;;;;;;;7.07;4.95;;;9.30;99.90;;;;;;5012527;28;20033;-46
2021/09/01 02:37:00;;;;;;;9.05;6.18;;;9.40;99.90;;;;;;5012489;28;20025;-45
2021/09/01 02:39:25;;;;;;;8.48;5.60;;;9.40;99.90;;;;;;5012551;28;20030;-44
2021/09/01 02:41:52;;;;;;;11.48;6.95;;;9.50;99.90;;;;;;5012491;28;20026;-46
2021/09/01 02:44:18;;;;;;;10.82;6.55;;;9.50;99.90;;;;;;5012596;28;20060;-44
2021/09/01 02:46:43;;;;;;;7.75;5.35;;;9.60;99.90;;;;;;5011659;28;20088;-44
2021/09/01 02:49:09;;;;;;;8.52;5.78;;;9.60;99.90;;;;;;5012347;28;20473;-46
2021/09/01 02:51:34;;;;;;;9.32;5.95;;;9.70;99.90;;;;;;5012425;28;20022;-44
2021/09/01 02:54:00;;;;;;;9.73;5.28;;;9.80;99.90;;;;;;5014100;28;20044;-46
2021/09/01 02:56:25;;;;;;;9.00;5.40;;;9.80;99.90;;;;;;5016213;28;20072;-44
2021/09/01 02:58:51;;;;;;;8.77;5.55;;;9.80;99.90;;;;;;5016020;28;20021;-45
2021/09/01 03:01:16;;;;;;;15.20;7.85;;;9.80;99.90;;;;;;5015736;28;20026;-46
2021/09/01 03:03:42;;;;;;;12.35;6.80;;;9.80;99.90;;;;;;5015391;28;20453;-46
2021/09/01 03:06:07;;;;;;;10.82;6.70;;;9.80;99.90;;;;;;5015866;28;20166;-45
2021/09/01 03:08:33;;;;;;;13.05;7.88;;;9.90;99.90;;;;;;5015933;28;20025;-48
2021/09/01 03:10:58;;;;;;;12.15;6.80;;;9.80;99.90;;;;;;5015730;28;20030;-44
2021/09/01 03:13:24;;;;;;;13.18;7.22;;;9.80;99.90;;;;;;5015879;28;20037;-44
2021/09/01 03:15:49;;;;;;;10.80;5.82;;;9.80;99.90;;;;;;5015759;28;20030;-46
2021/09/01 03:18:15;;;;;;;14.35;7.85;;;9.80;99.90;;;;;;5014852;28;20504;-46
2021/09/01 03:20:40;;;;;;;12.05;7.22;;;9.80;99.90;;;;;;5015612;28;20033;-43
2021/09/01 03:23:06;;;;;;;13.60;7.82;;;9.90;99.90;;;;;;5015673;28;20022;-46
2021/09/01 03:25:32;;;;;;;12.05;7.28;;;9.90;99.90;;;;;;5015660;28;20366;-44
2021/09/01 03:27:59;;;;;;;12.30;6.63;;;10.00;99.90;;;;;;5015457;28;20037;-43
2021/09/01 03:30:26;;;;;;;12.95;6.68;;;10.10;99.90;;;;;;5015626;28;20026;-46
2021/09/01 03:32:51;;;;;;;15.10;7.45;;;10.10;99.90;;;;;;5014496;28;20065;-44
2021/09/01 03:35:17;;;;;;;11.32;6.68;;;10.20;99.90;;;;;;5015286;28;20555;-45
2021/09/01 03:37:42;;;;;;;15.13;8.20;;;10.20;99.90;;;;;;5015408;28;20029;-45
2021/09/01 03:40:08;;;;;;;16.80;8.05;;;10.20;99.90;;;;;;5015287;28;20033;-46
2021/09/01 03:42:33;;;;;;;15.20;8.00;;;10.30;99.90;;;;;;5015330;28;20109;-44
2021/09/01 03:44:59;;;;;;;12.85;7.32;;;10.30;99.90;;;;;;5015162;28;20432;-44
2021/09/01 03:47:24;;;;;;;11.20;6.88;;;10.20;99.90;;;;;;5014264;28;20084;-44
2021/09/01 03:49:50;;;;;;;12.60;6.47;;;10.20;99.90;;;;;;5015091;28;20065;-45
2021/09/01 03:52:15;;;;;;;15.43;7.53;;;10.30;99.90;;;;;;5015096;28;20034;-44
2021/09/01 03:54:41;;;;;;;16.60;8.02;;;10.30;99.90;;;;;;5015017;28;20057;-46
2021/09/01 03:57:06;;;;;;;11.30;6.93;;;10.30;99.90;;;;;;5014979;28;20025;-46
2021/09/01 03:59:32;;;;;;;8.07;5.07;;;10.30;99.90;;;;;;5015036;28;20060;-47
2021/09/01 04:01:57;;;;;;;12.40;7.43;;;10.20;99.90;;;;;;5013992;28;20029;-45
2021/09/01 04:04:23;;;;;;;11.52;7.82;;;10.20;99.90;;;;;;5014447;28;20054;-45
2021/09/01 04:06:49;;;;;;;12.70;6.78;;;10.30;99.90;;;;;;5014883;28;20026;-48
2021/09/01 04:09:14;;;;;;;14.55;7.25;;;10.30;99.90;;;;;;5014754;28;20044;-44
2021/09/01 04:11:40;;;;;;;10.40;7.28;;;10.50;99.90;;;;;;5014781;28;20531;-44
2021/09/01 04:14:05;;;;;;;13.82;7.85;;;10.50;99.90;;;;;;5014583;28;20040;-45
2021/09/01 04:16:31;;;;;;;18.98;8.38;;;10.50;99.90;;;;;;5013701;28;20782;-44
2021/09/01 04:18:56;;;;;;;13.82;6.75;;;10.60;99.90;;;;;;5014460;28;20108;-45
2021/09/01 04:21:22;;;;;;;11.50;6.82;;;10.60;99.90;;;;;;5014590;28;20092;-45
2021/09/01 04:23:47;;;;;;;11.02;7.53;;;10.60;99.90;;;;;;5014796;28;20022;-43
2021/09/01 04:26:13;;;;;;;15.77;8.07;;;10.60;99.90;;;;;;5014426;28;20565;-44
2021/09/01 04:28:38;;;;;;;13.88;8.02;;;10.60;99.90;;;;;;5014532;28;20065;-44
2021/09/01 04:31:04;;;;;;;12.77;7.93;;;10.70;99.90;;;;;;5013193;28;20116;-44
2021/09/01 04:33:29;;;;;;;13.13;8.15;;;10.70;99.90;;;;;;5024243;28;20396;-47
2021/09/01 04:35:55;;;;;;;13.40;7.18;;;10.80;99.90;;;;;;5013918;28;20049;-47
2021/09/01 04:38:20;;;;;;;13.55;7.50;;;10.80;99.90;;;;;;5014195;28;20088;-45
2021/09/01 04:40:46;;;;;;;9.35;6.18;;;10.90;99.90;;;;;;5014019;28;20030;-44
2021/09/01 04:43:11;;;;;;;12.20;7.25;;;11.00;99.90;;;;;;5009681;28;20075;-44
2021/09/01 04:45:37;;;;;;;11.15;7.07;;;11.10;99.90;;;;;;5013739;28;20034;-47
2021/09/01 04:48:03;;;;;;;10.43;7.50;;;11.20;99.90;;;;;;5012894;28;20030;-48
2021/09/01 04:50:28;;;;;;;11.88;7.15;;;11.30;99.90;;;;;;5013982;28;20489;-44
2021/09/01 04:52:54;;;;;;;8.25;6.28;;;11.40;99.90;;;;;;5013962;28;20030;-44
2021/09/01 04:55:19;;;;;;;9.57;5.85;;;11.50;99.90;;;;;;5013736;28;20033;-47
2021/09/01 04:57:45;;;;;;;11.32;6.30;;;11.60;99.90;;;;;;5013871;28;20026;-45
2021/09/01 05:00:11;;;;;;;11.85;7.30;;;11.70;99.90;;;;;;5013690;28;20025;-43
2021/09/01 05:02:38;;;;;;;9.25;6.78;;;11.80;99.90;;;;;;5012137;28;20038;-47
2021/09/01 05:05:05;;;;;;;11.07;7.50;;;12.00;99.90;;;;;;5013453;28;20096;-47
2021/09/01 05:07:30;;;;;;;11.10;7.63;;;12.20;99.90;;;;;;5013558;28;20120;-45
2021/09/01 05:09:55;;;;;;;8.63;6.57;;;12.40;99.90;;;;;;5013664;28;20129;-44
2021/09/01 05:12:26;;;;;;;8.25;6.47;;;12.90;99.90;;;;;;5013541;28;20026;-44
2021/09/01 05:14:51;;;;;;;9.27;6.93;;;13.70;99.90;;;;;;5013423;28;20028;-44
2021/09/01 05:17:17;;;;;;;12.07;7.45;;;14.70;99.90;;;;;;5011563;28;20018;-48
2021/09/01 05:19:42;;;;;;;12.80;6.88;;;15.70;99.90;;;;;;5013493;28;20485;-48
2021/09/01 05:22:15;;;;;;;8.57;6.28;;;16.60;99.90;;;;;;5013451;28;20038;-45
2021/09/01 05:25:05;;;;;;;8.20;5.93;;;17.40;99.90;;;;;;5013419;28;20037;-45
2021/09/01 05:27:36;;;;;;;8.25;5.88;;;17.40;99.90;;;;;;5012800;28;20038;-43
2021/09/01 05:30:04;;;;;;;6.45;5.28;;;17.70;99.90;;;;;;5013272;28;20416;-49
2021/09/01 05:32:30;;;;;;;7.68;5.13;;;18.30;99.90;;;;;;5012043;28;20117;-45
2021/09/01 05:34:59;;;;;;;9.98;5.65;;;18.90;99.90;;;;;;5013272;28;20053;-47
2021/09/01 05:37:26;;;;;;;7.40;5.78;;;19.10;99.90;;;;;;5013440;28;20069;-46
2021/09/01 05:39:54;;;;;;;7.60;5.90;;;18.80;99.90;;;;;;5013271;28;20057;-46
2021/09/01 05:42:22;;;;;;;6.93;4.63;;;19.40;99.90;;;;;;5012973;28;20088;-45
2021/09/01 05:44:49;;;;;;;5.75;4.72;;;19.70;99.90;;;;;;5013192;28;20032;-46
2021/09/01 05:47:16;;;;;;;7.10;4.95;;;20.00;99.90;;;;;;5011800;28;20030;-45
2021/09/01 05:49:45;;;;;;;9.13;5.20;;;20.10;99.90;;;;;;5012967;28;20060;-44
2021/09/01 05:52:11;;;;;;;6.97;5.40;;;19.90;99.90;;;;;;5012927;28;20021;-47
2021/09/01 05:54:47;;;;;;;7.10;5.32;;;20.10;99.90;;;;;;5012955;28;20030;-47
2021/09/01 05:57:20;;;;;;;8.32;4.82;;;20.90;99.90;;;;;;5012866;28;20030;-48
2021/09/01 06:00:06;;;;;;;6.75;5.30;;;21.50;99.90;;;;;;5013027;28;20044;-47
2021/09/01 06:02:38;;;;;;;8.02;6.53;;;22.20;99.90;;;;;;5011596;28;20105;-48
2021/09/01 06:05:05;;;;;;;5.75;4.80;;;22.90;99.90;;;;;;4993678;28;20045;-47
2021/09/01 06:07:32;;;;;;;8.48;4.82;;;23.30;99.90;;;;;;4975883;28;20042;-49
2021/09/01 06:09:59;;;;;;;5.53;4.97;;;23.80;99.90;;;;;;5012850;28;20022;-48
2021/09/01 06:12:27;;;;;;;7.50;5.45;;;24.20;99.90;;;;;;5012772;28;20029;-47
2021/09/01 06:14:54;;;;;;;5.40;4.03;;;24.80;99.90;;;;;;5012670;28;20018;-48
2021/09/01 06:17:19;;;;;;;5.65;4.93;;;25.30;99.90;;;;;;5011812;28;20032;-45
2021/09/01 06:19:45;;;;;;;5.63;4.63;;;25.90;99.90;;;;;;5012838;28;20022;-47
2021/09/01 06:22:13;;;;;;;5.43;4.38;;;26.30;99.90;;;;;;5012611;28;20392;-50
2021/09/01 06:24:39;;;;;;;6.50;4.63;;;26.70;99.90;;;;;;5012727;28;20141;-47
2021/09/01 06:27:04;;;;;;;5.20;4.28;;;27.30;99.90;;;;;;5012696;28;20105;-48
2021/09/01 06:29:30;;;;;;;5.97;4.85;;;27.70;97.60;;;;;;5015381;28;20034;-46
2021/09/01 06:31:55;;;;;;;4.97;4.18;;;28.00;96.00;;;;;;5015744;28;20061;-44
2021/09/01 06:34:21;;;;;;;6.55;4.53;;;28.00;94.40;;;;;;5016417;28;20484;-43
2021/09/01 06:36:47;;;;;;;6.45;4.03;;;27.80;94.60;;;;;;5016513;28;20114;-43
2021/09/01 06:39:13;;;;;;;6.65;4.57;;;27.20;94.80;;;;;;5016365;28;20484;-43
2021/09/01 06:41:39;;;;;;;4.53;4.05;;;26.40;95.90;;;;;;5016410;28;20508;-46
2021/09/01 06:44:04;;;;;;;5.35;3.88;;;26.10;95.90;;;;;;5016449;28;20058;-44
2021/09/01 06:46:30;;;;;;;5.43;4.45;;;26.20;94.30;;;;;;5015354;28;20454;-44
2021/09/01 06:48:55;;;;;;;5.07;4.05;;;26.50;92.40;;;;;;5016357;28;20029;-45
2021/09/01 06:51:21;;;;;;;4.72;3.88;;;26.90;90.90;;;;;;5016058;28;20026;-46
2021/09/01 06:53:46;;;;;;;7.50;4.22;;;27.10;89.90;;;;;;5016204;28;20022;-42
2021/09/01 06:56:12;;;;;;;6.93;4.22;;;26.90;86.50;;;;;;5016177;28;20018;-46
2021/09/01 06:58:38;;;;;;;4.78;4.28;;;26.40;85.20;;;;;;5016150;28;20018;-46
2021/09/01 07:01:03;;;;;;;4.30;3.65;;;25.70;86.90;;;;;;5016160;28;20058;-48
2021/09/01 07:03:29;;;;;;;4.40;3.45;;;25.00;89.30;;;;;;5015206;28;20091;-45
2021/09/01 07:05:54;;;;;;;4.90;3.80;;;24.20;90.90;;;;;;5015934;28;20037;-43
2021/09/01 07:08:23;;;;;;;4.32;3.83;;;23.30;92.80;;;;;;5015964;28;20030;-46
2021/09/01 07:10:50;;;;;;;6.13;4.72;;;22.70;94.70;;;;;;5016026;28;20049;-47
2021/09/01 07:13:16;;;;;;;5.53;4.20;;;22.30;95.50;;;;;;5015810;28;20053;-47
2021/09/01 07:15:42;;;;;;;6.78;4.70;;;21.80;96.50;;;;;;5015815;28;20069;-45
2021/09/01 07:18:08;;;;;;;6.05;3.90;;;21.60;97.20;;;;;;5014979;28;20022;-47
2021/09/01 07:20:34;;;;;;;5.90;4.57;;;21.50;97.80;;;;;;5015622;28;20029;-45
2021/09/01 07:22:59;;;;;;;7.63;4.97;;;21.50;97.70;;;;;;5015676;28;20037;-47
2021/09/01 07:25:26;;;;;;;7.22;5.18;;;21.40;97.60;;;;;;5015572;28;20033;-46
2021/09/01 07:27:52;;;;;;;6.75;4.85;;;21.30;97.40;;;;;;5015605;28;20028;-45
2021/09/01 07:30:17;;;;;;;7.03;5.07;;;21.10;98.80;;;;;;5015523;28;20121;-48
2021/09/01 07:32:43;;;;;;;7.18;5.38;;;21.00;99.20;;;;;;5014621;28;20381;-45
2021/09/01 07:35:09;;;;;;;6.72;4.80;;;20.90;99.30;;;;;;5015295;28;20038;-49
2021/09/01 07:37:42;;;;;;;7.35;5.35;;;20.90;99.90;;;;;;5015383;28;20092;-48
2021/09/01 07:40:08;;;;;;;5.68;4.50;;;20.70;99.90;;;;;;5014865;28;20018;-45
2021/09/01 07:42:34;;;;;;;8.25;4.60;;;20.70;99.90;;;;;;5015310;28;20049;-49
2021/09/01 07:45:00;;;;;;;7.15;4.15;;;20.60;99.90;;;;;;5015268;28;20474;-44
2021/09/01 07:47:25;;;;;;;5.38;3.78;;;20.60;99.90;;;;;;5014218;28;20114;-46
2021/09/01 07:49:51;;;;;;;7.30;4.75;;;20.60;99.90;;;;;;5015015;28;20109;-48
2021/09/01 07:52:16;;;;;;;7.13;4.07;;;20.70;99.90;;;;;;5015180;28;20042;-45
2021/09/01 07:54:42;;;;;;;4.95;3.60;;;20.70;99.90;;;;;;5014981;28;20474;-45
2021/09/01 07:57:07;;;;;;;5.72;4.07;;;20.80;99.90;;;;;;5015065;28;20018;-47
2021/09/01 07:59:33;;;;;;;5.60;4.15;;;21.00;99.90;;;;;;5014971;28;20030;-50
2021/09/01 08:01:58;;;;;;;5.95;4.00;;;21.10;99.90;;;;;;5014000;28;20026;-48
2021/09/01 08:04:24;;;;;;;7.63;5.10;;;21.10;99.90;;;;;;5014474;28;20501;-47
2021/09/01 08:06:50;;;;;;;5.35;4.28;;;21.30;99.90;;;;;;5014868;28;20425;-48
2021/09/01 08:09:15;;;;;;;9.63;4.72;;;21.50;99.90;;;;;;5014675;28;20033;-45
2021/09/01 08:11:41;;;;;;;7.38;4.70;;;22.00;99.20;;;;;;5014735;28;20394;-48
2021/09/01 08:14:06;;;;;;;5.95;4.63;;;22.50;97.80;;;;;;5014680;28;20026;-47
2021/09/01 08:16:32;;;;;;;7.47;4.75;;;23.20;96.80;;;;;;5012490;28;20033;-47
2021/09/01 08:18:58;;;;;;;9.27;4.47;;;24.30;92.20;;;;;;5014558;28;20026;-48
2021/09/01 08:21:24;;;;;;;6.53;4.30;;;25.20;90.60;;;;;;5014569;28;20026;-46
2021/09/01 08:23:49;;;;;;;4.97;4.13;;;25.00;89.40;;;;;;5014570;28;20499;-47
2021/09/01 08:26:15;;;;;;;7.18;5.03;;;25.10;88.60;;;;;;5014495;28;20029;-46
2021/09/01 08:28:41;;;;;;;7.25;5.35;;;25.00;84.40;;;;;;5014415;28;20386;-43
2021/09/01 08:31:06;;;;;;;4.93;3.72;;;24.70;86.50;;;;;;5014072;28;20026;-48
2021/09/01 08:33:32;;;;;;;6.72;4.80;;;24.50;88.00;;;;;;5013494;28;20033;-48
2021/09/01 08:35:57;;;;;;;6.50;4.88;;;24.50;87.30;;;;;;5014239;28;20076;-48
2021/09/01 08:38:23;;;;;;;5.55;4.38;;;24.00;86.40;;;;;;5014271;28;20397;-44
2021/09/01 08:40:49;;;;;;;5.60;4.47;;;25.20;83.20;;;;;;5014243;28;20034;-49
2021/09/01 08:43:18;;;;;;;4.18;3.55;;;26.10;80.20;;;;;;5014214;28;20032;-48
2021/09/01 08:45:45;;;;;;;5.65;4.78;;;26.10;77.60;;;;;;5014141;28;20038;-48
2021/09/01 08:48:13;;;;;;;5.85;4.65;;;25.30;78.70;;;;;;5012986;28;20528;-46
2021/09/01 08:50:38;;;;;;;6.38;4.45;;;24.80;79.10;;;;;;5013463;28;20073;-45
2021/09/01 08:53:04;;;;;;;7.72;4.43;;;24.40;80.20;;;;;;5013818;28;20077;-47
2021/09/01 08:55:29;;;;;;;7.63;4.40;;;24.00;81.10;;;;;;5013807;28;20030;-47
2021/09/01 08:57:55;;;;;;;6.43;3.95;;;23.60;83.40;;;;;;5013972;28;20026;-46
2021/09/01 09:00:20;;;;;;;5.38;4.00;;;23.30;83.00;;;;;;5013899;28;20412;-47
2021/09/01 09:02:57;;;;;;;4.30;3.78;;;23.00;87.30;;;;;;5012787;28;20030;-49
2021/09/01 09:05:31;;;;;;;6.40;4.20;;;22.70;87.90;;;;;;5013662;28;20448;-45
2021/09/01 09:07:59;;;;;;;6.93;4.15;;;22.60;90.10;;;;;;5013668;28;20466;-46
2021/09/01 09:10:37;;;;;;;4.35;3.63;;;22.40;90.70;;;;;;5012411;28;20402;-47
2021/09/01 09:13:05;;;;;;;5.60;3.92;;;22.30;91.00;;;;;;5013890;28;20430;-46
2021/09/01 09:15:31;;;;;;;5.97;3.65;;;22.20;91.50;;;;;;5013493;28;20033;-46
2021/09/01 09:17:57;;;;;;;8.50;5.78;;;22.10;92.10;;;;;;5012718;28;20029;-46
2021/09/01 09:20:34;;;;;;;9.38;5.05;;;21.80;92.30;;;;;;5013538;28;20029;-46
2021/09/01 09:23:07;;;;;;;5.45;4.28;;;21.70;93.40;;;;;;5013485;28;20021;-45
2021/09/01 09:25:34;;;;;;;5.50;4.38;;;21.60;93.90;;;;;;5013250;28;20040;-45
2021/09/01 09:28:07;;;;;;;5.28;4.25;;;21.70;94.40;;;;;;5013387;28;20516;-45
2021/09/01 09:30:42;;;;;;;6.18;4.15;;;21.80;94.30;;;;;;5013316;28;20022;-45
2021/09/01 09:33:09;;;;;;;8.45;4.53;;;22.00;93.70;;;;;;5012403;28;20331;-45
2021/09/01 09:35:51;;;;;;;5.60;3.92;;;22.00;93.40;;;;;;5013157;28;20120;-45
2021/09/01 09:38:45;;;;;;;6.18;3.60;;;22.30;93.30;;;;;;5013113;28;20057;-44
2021/09/01 09:41:23;;;;;;;4.15;3.45;;;22.60;92.00;;;;;;5013193;28;20040;-47
2021/09/01 09:43:50;;;;;;;6.03;4.03;;;23.20;90.30;;;;;;5013121;28;20038;-46
2021/09/01 09:46:16;;;;;;;4.63;3.78;;;23.80;86.90;;;;;;5012214;28;20117;-48
2021/09/01 09:48:45;;;;;;;4.50;4.10;;;24.90;80.80;;;;;;5012869;28;20483;-46
2021/09/01 09:51:16;;;;;;;4.32;3.63;;;25.70;75.10;;;;;;5013130;28;20055;-45
2021/09/01 09:53:43;;;;;;;4.20;3.50;;;26.60;71.00;;;;;;5013059;28;20108;-46
2021/09/01 09:56:35;;;;;;;7.35;4.30;;;27.20;66.60;;;;;;5013009;28;20034;-50
2021/09/01 09:59:01;;;;;;;7.82;4.68;;;26.50;59.70;;;;;;5012528;28;20060;-46
2021/09/01 10:01:27;;;;;;;4.43;3.47;;;25.50;66.60;;;;;;5011984;28;20041;-46
2021/09/01 10:03:53;;;;;;;6.63;3.90;;;25.00;71.50;;;;;;5012554;28;20050;-46
2021/09/01 10:06:20;;;;;;;8.00;3.95;;;24.90;72.70;;;;;;5012979;28;20030;-48
2021/09/01 10:08:49;;;;;;;3.92;3.50;;;25.00;73.30;;;;;;5012793;28;20022;-47
2021/09/01 10:11:17;;;;;;;6.32;3.97;;;24.80;73.70;;;;;;5012918;28;20022;-48
2021/09/01 10:13:44;;;;;;;7.93;3.75;;;24.90;73.70;;;;;;5012681;28;20026;-45
2021/09/01 10:16:22;;;;;;;5.40;3.78;;;25.00;72.30;;;;;;5011865;28;20507;-47
2021/09/01 10:19:04;;;;;;;5.10;3.50;;;25.00;71.30;;;;;;5012772;28;20030;-46
2021/09/01 10:21:34;;;;;;;5.13;3.47;;;25.00;71.40;;;;;;5012785;28;20107;-44
2021/09/01 10:24:18;;;;;;;5.00;3.92;;;24.90;73.40;;;;;;5012696;28;20026;-44
2021/09/01 10:26:59;;;;;;;5.70;4.22;;;24.90;70.80;;;;;;5012651;28;20493;-47
2021/09/01 10:29:45;;;;;;;6.22;4.50;;;24.80;69.40;;;;;;5012794;28;20025;-46
2021/09/01 10:32:40;;;;;;;4.70;3.63;;;24.50;72.10;;;;;;5011758;28;20018;-46
2021/09/01 10:35:15;;;;;;;4.28;3.47;;;24.50;73.40;;;;;;5012212;28;20038;-47
2021/09/01 10:37:47;;;;;;;5.33;3.97;;;24.50;73.60;;;;;;5012631;28;20509;-47
2021/09/01 10:40:21;;;;;;;6.68;4.35;;;24.40;74.40;;;;;;5012642;28;20648;-45
2021/09/01 10:42:54;;;;;;;6.85;4.38;;;24.20;73.50;;;;;;5012407;28;20371;-49
2021/09/01 10:45:43;;;;;;;6.68;4.80;;;23.90;74.70;;;;;;5012585;28;20125;-44
2021/09/01 10:48:09;;;;;;;4.00;3.42;;;23.50;76.20;;;;;;5011476;28;20034;-47
2021/09/01 10:50:44;;;;;;;4.13;3.58;;;23.10;80.30;;;;;;5012534;28;20053;-46
2021/09/01 10:53:29;;;;;;;5.30;3.45;;;23.00;83.10;;;;;;5012514;28;20036;-47
2021/09/01 10:56:06;;;;;;;6.40;3.40;;;23.10;85.70;;;;;;5012329;28;20524;-44
2021/09/01 10:58:36;;;;;;;5.30;3.92;;;23.20;84.50;;;;;;5012444;28;20033;-49
2021/09/01 11:01:21;;;;;;;5.10;3.70;;;23.00;85.00;;;;;;5012124;28;20029;-49
2021/09/01 11:04:04;;;;;;;5.65;4.32;;;22.90;84.60;;;;;;5012067;28;20042;-45
2021/09/01 11:06:36;;;;;;;7.63;4.38;;;22.70;85.70;;;;;;5012410;28;20022;-44
2021/09/01 11:09:07;;;;;;;5.20;4.10;;;22.80;86.80;;;;;;5012350;28;20037;-45
2021/09/01 11:11:41;;;;;;;7.97;3.92;;;23.00;86.60;;;;;;5012212;28;20462;-47
2021/09/01 11:14:07;;;;;;;6.43;4.07;;;23.00;86.90;;;;;;5012485;28;20076;-46
2021/09/01 11:16:33;;;;;;;5.45;4.47;;;22.80;87.50;;;;;;5014932;28;20026;-49
2021/09/01 11:19:05;;;;;;;6.00;4.40;;;22.60;88.20;;;;;;5015748;28;20117;-46
2021/09/01 11:21:39;;;;;;;7.72;4.82;;;22.50;88.30;;;;;;5015759;28;20436;-44
2021/09/01 11:24:09;;;;;;;6.55;3.42;;;22.60;88.80;;;;;;5015648;28;20029;-43
2021/09/01 11:26:34;;;;;;;8.73;4.25;;;22.80;88.30;;;;;;5015656;28;20018;-48
2021/09/01 11:29:04;;;;;;;5.75;3.67;;;22.90;87.80;;;;;;5015517;28;20593;-45
2021/09/01 11:31:30;;;;;;;5.38;3.90;;;23.10;87.90;;;;;;5014585;28;20046;-44
2021/09/01 11:33:57;;;;;;;5.35;3.78;;;23.10;87.60;;;;;;5015494;28;20034;-46
2021/09/01 11:36:27;;;;;;;6.28;3.47;;;23.20;87.60;;;;;;5015536;28;20385;-46
2021/09/01 11:38:55;;;;;;;4.65;3.95;;;23.30;87.20;;;;;;5015438;28;20096;-43
2021/09/01 11:41:22;;;;;;;5.03;3.67;;;23.40;87.00;;;;;;5015252;28;20026;-44
2021/09/01 11:43:56;;;;;;;7.38;4.75;;;23.40;87.30;;;;;;5015281;28;20018;-45
2021/09/01 11:46:22;;;;;;;5.95;4.70;;;23.40;87.80;;;;;;5014399;28;20037;-44
2021/09/01 11:48:47;;;;;;;6.88;4.20;;;23.20;88.70;;;;;;5015248;28;20030;-45
2021/09/01 11:51:13;;;;;;;6.90;4.22;;;23.00;89.70;;;;;;5015281;28;20397;-46
2021/09/01 11:53:41;;;;;;;8.07;5.05;;;22.90;90.40;;;;;;5015196;28;20046;-46
2021/09/01 11:56:07;;;;;;;7.25;5.35;;;22.90;90.40;;;;;;5014996;28;20474;-44
2021/09/01 11:58:33;;;;;;;7.97;4.32;;;23.10;89.50;;;;;;5015067;28;20041;-46
2021/09/01 12:01:02;;;;;;;7.85;5.10;;;23.20;88.50;;;;;;5014910;28;20030;-51
2021/09/01 12:03:28;;;;;;;7.53;4.88;;;23.00;86.80;;;;;;5014525;28;20378;-48
2021/09/01 12:06:06;;;;;;;6.57;5.10;;;22.80;88.40;;;;;;5014825;28;20054;-44
2021/09/01 12:08:41;;;;;;;5.55;3.95;;;22.50;88.70;;;;;;5014820;28;20034;-45
2021/09/01 12:11:09;;;;;;;7.57;4.07;;;22.30;90.00;;;;;;5014848;28;20382;-48
2021/09/01 12:13:45;;;;;;;5.00;3.95;;;22.20;90.60;;;;;;5014882;28;20128;-43
2021/09/01 12:16:12;;;;;;;4.55;3.80;;;22.30;90.70;;;;;;5013762;28;20042;-46
2021/09/01 12:18:55;;;;;;;6.45;4.30;;;22.50;90.60;;;;;;5014681;28;20053;-46
2021/09/01 12:21:25;;;;;;;6.50;5.25;;;22.70;90.10;;;;;;5014682;28;20028;-48
2021/09/01 12:24:14;;;;;;;5.88;4.82;;;22.70;88.10;;;;;;5014503;28;20028;-47
2021/09/01 12:26:56;;;;;;;7.35;4.85;;;22.80;87.70;;;;;;5014529;28;20367;-46
2021/09/01 12:29:32;;;;;;;6.32;4.60;;;22.80;89.00;;;;;;5014446;28;20029;-46
2021/09/01 12:31:59;;;;;;;6.22;4.20;;;22.60;89.60;;;;;;5013409;28;20018;-48
2021/09/01 12:34:29;;;;;;;7.38;4.38;;;22.60;90.40;;;;;;5014160;28;20026;-48
2021/09/01 12:37:08;;;;;;;6.00;3.97;;;22.70;90.70;;;;;;5014306;28;20021;-46
2021/09/01 12:39:50;;;;;;;6.45;3.78;;;22.90;90.20;;;;;;5014338;28;20105;-48
2021/09/01 12:42:21;;;;;;;6.95;5.10;;;23.00;90.20;;;;;;5014156;28;20018;-46
2021/09/01 12:44:55;;;;;;;6.95;4.50;;;23.00;89.70;;;;;;5014193;28;20037;-44
2021/09/01 12:47:21;;;;;;;6.68;4.22;;;22.70;88.50;;;;;;5013345;28;20076;-46
2021/09/01 12:49:53;;;;;;;6.10;4.38;;;22.40;90.10;;;;;;5014181;28;20481;-46
2021/09/01 12:52:21;;;;;;;6.55;4.32;;;22.30;91.20;;;;;;5014000;28;20044;-52